sensor_id;sensor_type;location;lat;lon;timestamp;P1;durP1;ratioP1;P2;durP2;ratioP2
59907;SDS011;61804;54.926;73.496;2023-11-19T00:00:37;0.70;;;0.70;;
59907;SDS011;61804;54.926;73.496;2023-11-19T00:03:04;1.77;;;0.65;;
59907;SDS011;61804;54.926;73.496;2023-11-19T00:05:32;1.33;;;1.23;;
59907;SDS011;61804;54.926;73.496;2023-11-19T00:08:00;2.58;;;1.27;;
59907;SDS011;61804;54.926;73.496;2023-11-19T00:10:29;0.52;;;0.50;;
59907;SDS011;61804;54.926;73.496;2023-11-19T00:12:57;1.83;;;1.02;;
59907;SDS011;61804;54.926;73.496;2023-11-19T00:15:24;2.92;;;1.33;;
59907;SDS011;61804;54.926;73.496;2023-11-19T00:17:52;2.25;;;1.13;;
59907;SDS011;61804;54.926;73.496;2023-11-19T00:20:19;0.60;;;0.60;;
59907;SDS011;61804;54.926;73.496;2023-11-19T00:22:49;2.53;;;1.60;;
59907;SDS011;61804;54.926;73.496;2023-11-19T00:25:20;4.40;;;1.55;;
59907;SDS011;61804;54.926;73.496;2023-11-19T00:27:51;6.82;;;1.20;;
59907;SDS011;61804;54.926;73.496;2023-11-19T00:30:20;2.53;;;1.88;;
59907;SDS011;61804;54.926;73.496;2023-11-19T00:32:49;1.77;;;1.65;;
59907;SDS011;61804;54.926;73.496;2023-11-19T00:35:17;1.60;;;0.80;;
59907;SDS011;61804;54.926;73.496;2023-11-19T00:37:44;1.63;;;0.90;;
59907;SDS011;61804;54.926;73.496;2023-11-19T00:40:16;1.10;;;0.57;;
59907;SDS011;61804;54.926;73.496;2023-11-19T00:42:44;1.27;;;0.68;;
59907;SDS011;61804;54.926;73.496;2023-11-19T00:45:11;2.20;;;1.20;;
59907;SDS011;61804;54.926;73.496;2023-11-19T00:47:39;2.83;;;1.95;;
59907;SDS011;61804;54.926;73.496;2023-11-19T00:50:07;12.60;;;3.90;;
59907;SDS011;61804;54.926;73.496;2023-11-19T00:52:38;1.23;;;1.13;;
59907;SDS011;61804;54.926;73.496;2023-11-19T00:55:07;6.15;;;2.92;;
59907;SDS011;61804;54.926;73.496;2023-11-19T00:57:36;3.17;;;1.70;;
59907;SDS011;61804;54.926;73.496;2023-11-19T01:00:05;5.20;;;2.30;;
59907;SDS011;61804;54.926;73.496;2023-11-19T01:02:50;7.18;;;6.53;;
59907;SDS011;61804;54.926;73.496;2023-11-19T01:05:19;5.82;;;1.50;;
59907;SDS011;61804;54.926;73.496;2023-11-19T01:07:49;1.80;;;0.98;;
59907;SDS011;61804;54.926;73.496;2023-11-19T01:10:16;3.25;;;1.75;;
59907;SDS011;61804;54.926;73.496;2023-11-19T01:12:45;1.15;;;0.60;;
59907;SDS011;61804;54.926;73.496;2023-11-19T01:15:12;22.50;;;2.53;;
59907;SDS011;61804;54.926;73.496;2023-11-19T01:17:40;10.43;;;4.20;;
59907;SDS011;61804;54.926;73.496;2023-11-19T01:20:08;2.65;;;1.23;;
59907;SDS011;61804;54.926;73.496;2023-11-19T01:22:39;1.63;;;1.38;;
59907;SDS011;61804;54.926;73.496;2023-11-19T01:25:07;1.08;;;0.55;;
59907;SDS011;61804;54.926;73.496;2023-11-19T01:27:34;4.13;;;1.08;;
59907;SDS011;61804;54.926;73.496;2023-11-19T01:30:03;0.82;;;0.75;;
59907;SDS011;61804;54.926;73.496;2023-11-19T01:32:33;1.27;;;0.80;;
59907;SDS011;61804;54.926;73.496;2023-11-19T01:35:01;3.55;;;1.27;;
59907;SDS011;61804;54.926;73.496;2023-11-19T01:37:28;6.50;;;2.53;;
59907;SDS011;61804;54.926;73.496;2023-11-19T01:39:57;5.28;;;1.35;;
59907;SDS011;61804;54.926;73.496;2023-11-19T01:42:25;4.18;;;0.95;;
59907;SDS011;61804;54.926;73.496;2023-11-19T01:45:00;10.63;;;2.90;;
59907;SDS011;61804;54.926;73.496;2023-11-19T01:47:28;4.00;;;2.50;;
59907;SDS011;61804;54.926;73.496;2023-11-19T01:49:56;5.13;;;3.45;;
59907;SDS011;61804;54.926;73.496;2023-11-19T01:52:24;9.48;;;4.03;;
59907;SDS011;61804;54.926;73.496;2023-11-19T01:54:52;5.55;;;2.33;;
59907;SDS011;61804;54.926;73.496;2023-11-19T01:57:21;8.57;;;3.30;;
59907;SDS011;61804;54.926;73.496;2023-11-19T01:59:50;13.18;;;3.75;;
59907;SDS011;61804;54.926;73.496;2023-11-19T02:02:19;7.20;;;3.28;;
59907;SDS011;61804;54.926;73.496;2023-11-19T02:04:49;10.68;;;1.98;;
59907;SDS011;61804;54.926;73.496;2023-11-19T02:07:17;5.00;;;3.83;;
59907;SDS011;61804;54.926;73.496;2023-11-19T02:09:44;23.27;;;3.55;;
59907;SDS011;61804;54.926;73.496;2023-11-19T02:12:12;4.43;;;1.95;;
59907;SDS011;61804;54.926;73.496;2023-11-19T02:14:40;11.20;;;4.00;;
59907;SDS011;61804;54.926;73.496;2023-11-19T02:17:24;7.28;;;1.67;;
59907;SDS011;61804;54.926;73.496;2023-11-19T02:19:51;5.20;;;1.85;;
59907;SDS011;61804;54.926;73.496;2023-11-19T02:22:19;2.53;;;2.00;;
59907;SDS011;61804;54.926;73.496;2023-11-19T02:24:47;13.07;;;2.90;;
59907;SDS011;61804;54.926;73.496;2023-11-19T02:27:28;5.53;;;3.17;;
59907;SDS011;61804;54.926;73.496;2023-11-19T02:29:58;8.65;;;4.85;;
59907;SDS011;61804;54.926;73.496;2023-11-19T02:32:27;5.22;;;1.83;;
59907;SDS011;61804;54.926;73.496;2023-11-19T02:34:57;2.70;;;2.50;;
59907;SDS011;61804;54.926;73.496;2023-11-19T02:37:25;3.28;;;2.15;;
59907;SDS011;61804;54.926;73.496;2023-11-19T02:39:53;2.72;;;1.38;;
59907;SDS011;61804;54.926;73.496;2023-11-19T02:42:20;1.17;;;0.93;;
59907;SDS011;61804;54.926;73.496;2023-11-19T02:44:48;2.80;;;1.75;;
59907;SDS011;61804;54.926;73.496;2023-11-19T02:47:15;2.90;;;1.25;;
59907;SDS011;61804;54.926;73.496;2023-11-19T02:49:43;7.88;;;2.50;;
59907;SDS011;61804;54.926;73.496;2023-11-19T02:52:11;7.15;;;2.75;;
59907;SDS011;61804;54.926;73.496;2023-11-19T02:54:39;3.65;;;1.85;;
59907;SDS011;61804;54.926;73.496;2023-11-19T02:57:08;3.22;;;2.53;;
59907;SDS011;61804;54.926;73.496;2023-11-19T02:59:38;4.68;;;1.75;;
59907;SDS011;61804;54.926;73.496;2023-11-19T03:02:06;5.82;;;1.75;;
59907;SDS011;61804;54.926;73.496;2023-11-19T03:04:33;1.85;;;1.15;;
59907;SDS011;61804;54.926;73.496;2023-11-19T03:07:01;4.07;;;2.25;;
59907;SDS011;61804;54.926;73.496;2023-11-19T03:09:29;2.72;;;1.95;;
59907;SDS011;61804;54.926;73.496;2023-11-19T03:11:56;3.13;;;2.00;;
59907;SDS011;61804;54.926;73.496;2023-11-19T03:14:24;7.60;;;5.22;;
59907;SDS011;61804;54.926;73.496;2023-11-19T03:16:51;7.18;;;3.47;;
59907;SDS011;61804;54.926;73.496;2023-11-19T03:19:19;3.53;;;2.15;;
59907;SDS011;61804;54.926;73.496;2023-11-19T03:21:46;3.20;;;1.40;;
59907;SDS011;61804;54.926;73.496;2023-11-19T03:24:14;2.58;;;1.85;;
59907;SDS011;61804;54.926;73.496;2023-11-19T03:26:42;4.30;;;2.78;;
59907;SDS011;61804;54.926;73.496;2023-11-19T03:29:09;3.88;;;2.78;;
59907;SDS011;61804;54.926;73.496;2023-11-19T03:31:36;3.42;;;2.30;;
59907;SDS011;61804;54.926;73.496;2023-11-19T03:34:08;3.90;;;1.50;;
59907;SDS011;61804;54.926;73.496;2023-11-19T03:36:36;2.63;;;2.42;;
59907;SDS011;61804;54.926;73.496;2023-11-19T03:39:04;3.58;;;2.38;;
59907;SDS011;61804;54.926;73.496;2023-11-19T03:41:32;1.90;;;1.38;;
59907;SDS011;61804;54.926;73.496;2023-11-19T03:43:59;3.75;;;2.72;;
59907;SDS011;61804;54.926;73.496;2023-11-19T03:46:27;5.32;;;2.83;;
59907;SDS011;61804;54.926;73.496;2023-11-19T03:48:56;5.22;;;2.28;;
59907;SDS011;61804;54.926;73.496;2023-11-19T03:51:23;3.83;;;1.60;;
59907;SDS011;61804;54.926;73.496;2023-11-19T03:53:51;2.53;;;1.23;;
59907;SDS011;61804;54.926;73.496;2023-11-19T03:56:18;2.58;;;1.90;;
59907;SDS011;61804;54.926;73.496;2023-11-19T03:58:47;3.42;;;1.27;;
59907;SDS011;61804;54.926;73.496;2023-11-19T04:01:15;10.85;;;3.50;;
59907;SDS011;61804;54.926;73.496;2023-11-19T04:03:42;9.98;;;3.15;;
59907;SDS011;61804;54.926;73.496;2023-11-19T04:06:11;1.17;;;1.05;;
59907;SDS011;61804;54.926;73.496;2023-11-19T04:08:40;2.67;;;2.47;;
59907;SDS011;61804;54.926;73.496;2023-11-19T04:11:08;2.38;;;2.17;;
59907;SDS011;61804;54.926;73.496;2023-11-19T04:13:35;6.20;;;1.20;;
59907;SDS011;61804;54.926;73.496;2023-11-19T04:16:03;2.88;;;2.40;;
59907;SDS011;61804;54.926;73.496;2023-11-19T04:18:32;1.50;;;1.17;;
59907;SDS011;61804;54.926;73.496;2023-11-19T04:20:59;1.35;;;0.98;;
59907;SDS011;61804;54.926;73.496;2023-11-19T04:23:28;1.58;;;1.10;;
59907;SDS011;61804;54.926;73.496;2023-11-19T04:25:56;4.18;;;2.58;;
59907;SDS011;61804;54.926;73.496;2023-11-19T04:28:23;2.05;;;1.80;;
59907;SDS011;61804;54.926;73.496;2023-11-19T04:30:53;2.60;;;2.10;;
59907;SDS011;61804;54.926;73.496;2023-11-19T04:33:21;6.97;;;3.42;;
59907;SDS011;61804;54.926;73.496;2023-11-19T04:35:49;1.67;;;1.52;;
59907;SDS011;61804;54.926;73.496;2023-11-19T04:38:17;5.35;;;1.30;;
59907;SDS011;61804;54.926;73.496;2023-11-19T04:40:44;2.17;;;1.20;;
59907;SDS011;61804;54.926;73.496;2023-11-19T04:43:12;3.95;;;2.67;;
59907;SDS011;61804;54.926;73.496;2023-11-19T04:45:39;3.72;;;2.00;;
59907;SDS011;61804;54.926;73.496;2023-11-19T04:48:06;3.03;;;1.83;;
59907;SDS011;61804;54.926;73.496;2023-11-19T04:50:33;2.65;;;1.40;;
59907;SDS011;61804;54.926;73.496;2023-11-19T04:53:01;10.50;;;6.05;;
59907;SDS011;61804;54.926;73.496;2023-11-19T04:55:29;6.40;;;3.15;;
59907;SDS011;61804;54.926;73.496;2023-11-19T04:57:57;10.85;;;6.43;;
59907;SDS011;61804;54.926;73.496;2023-11-19T05:00:24;2.58;;;1.75;;
59907;SDS011;61804;54.926;73.496;2023-11-19T05:02:52;2.45;;;1.95;;
59907;SDS011;61804;54.926;73.496;2023-11-19T05:05:20;4.25;;;2.63;;
59907;SDS011;61804;54.926;73.496;2023-11-19T05:07:47;3.38;;;1.92;;
59907;SDS011;61804;54.926;73.496;2023-11-19T05:10:14;2.75;;;2.13;;
59907;SDS011;61804;54.926;73.496;2023-11-19T05:12:42;3.28;;;2.83;;
59907;SDS011;61804;54.926;73.496;2023-11-19T05:15:09;3.47;;;2.58;;
59907;SDS011;61804;54.926;73.496;2023-11-19T05:17:39;4.00;;;1.38;;
59907;SDS011;61804;54.926;73.496;2023-11-19T05:20:06;3.85;;;2.47;;
59907;SDS011;61804;54.926;73.496;2023-11-19T05:22:40;6.60;;;3.10;;
59907;SDS011;61804;54.926;73.496;2023-11-19T05:25:07;5.18;;;4.47;;
59907;SDS011;61804;54.926;73.496;2023-11-19T05:27:36;4.43;;;3.17;;
59907;SDS011;61804;54.926;73.496;2023-11-19T05:30:04;3.33;;;1.60;;
59907;SDS011;61804;54.926;73.496;2023-11-19T05:32:36;1.95;;;1.73;;
59907;SDS011;61804;54.926;73.496;2023-11-19T05:35:04;5.45;;;3.47;;
59907;SDS011;61804;54.926;73.496;2023-11-19T05:37:31;5.45;;;2.83;;
59907;SDS011;61804;54.926;73.496;2023-11-19T05:40:01;4.63;;;2.63;;
59907;SDS011;61804;54.926;73.496;2023-11-19T05:42:30;6.18;;;3.67;;
59907;SDS011;61804;54.926;73.496;2023-11-19T05:44:58;5.07;;;4.32;;
59907;SDS011;61804;54.926;73.496;2023-11-19T05:47:25;8.25;;;5.00;;
59907;SDS011;61804;54.926;73.496;2023-11-19T05:49:53;5.97;;;4.28;;
59907;SDS011;61804;54.926;73.496;2023-11-19T05:52:20;3.45;;;2.40;;
59907;SDS011;61804;54.926;73.496;2023-11-19T05:54:48;7.53;;;3.60;;
59907;SDS011;61804;54.926;73.496;2023-11-19T05:57:18;3.50;;;2.88;;
59907;SDS011;61804;54.926;73.496;2023-11-19T05:59:52;3.00;;;1.95;;
59907;SDS011;61804;54.926;73.496;2023-11-19T06:02:20;2.63;;;2.38;;
59907;SDS011;61804;54.926;73.496;2023-11-19T06:04:48;6.25;;;2.83;;
59907;SDS011;61804;54.926;73.496;2023-11-19T06:07:16;1.73;;;1.45;;
59907;SDS011;61804;54.926;73.496;2023-11-19T06:09:44;4.38;;;1.23;;
59907;SDS011;61804;54.926;73.496;2023-11-19T06:12:11;1.80;;;1.63;;
59907;SDS011;61804;54.926;73.496;2023-11-19T06:14:41;3.50;;;1.85;;
59907;SDS011;61804;54.926;73.496;2023-11-19T06:17:08;4.45;;;2.95;;
59907;SDS011;61804;54.926;73.496;2023-11-19T06:19:37;5.93;;;3.78;;
59907;SDS011;61804;54.926;73.496;2023-11-19T06:22:04;10.43;;;5.68;;
59907;SDS011;61804;54.926;73.496;2023-11-19T06:24:32;4.45;;;3.97;;
59907;SDS011;61804;54.926;73.496;2023-11-19T06:27:00;7.03;;;3.67;;
59907;SDS011;61804;54.926;73.496;2023-11-19T06:29:27;23.58;;;12.20;;
59907;SDS011;61804;54.926;73.496;2023-11-19T06:31:54;11.07;;;7.75;;
59907;SDS011;61804;54.926;73.496;2023-11-19T06:34:22;9.15;;;5.38;;
59907;SDS011;61804;54.926;73.496;2023-11-19T06:36:50;12.18;;;7.63;;
59907;SDS011;61804;54.926;73.496;2023-11-19T06:39:17;5.63;;;4.15;;
59907;SDS011;61804;54.926;73.496;2023-11-19T06:41:45;2.53;;;1.75;;
59907;SDS011;61804;54.926;73.496;2023-11-19T06:44:13;4.60;;;3.13;;
59907;SDS011;61804;54.926;73.496;2023-11-19T06:46:40;7.72;;;4.55;;
59907;SDS011;61804;54.926;73.496;2023-11-19T06:49:08;4.80;;;3.28;;
59907;SDS011;61804;54.926;73.496;2023-11-19T06:51:35;8.02;;;5.47;;
59907;SDS011;61804;54.926;73.496;2023-11-19T06:54:02;5.25;;;4.43;;
59907;SDS011;61804;54.926;73.496;2023-11-19T06:56:30;12.52;;;7.20;;
59907;SDS011;61804;54.926;73.496;2023-11-19T06:58:57;6.22;;;4.40;;
59907;SDS011;61804;54.926;73.496;2023-11-19T07:01:25;11.93;;;8.80;;
59907;SDS011;61804;54.926;73.496;2023-11-19T07:03:52;6.63;;;4.15;;
59907;SDS011;61804;54.926;73.496;2023-11-19T07:06:19;3.08;;;2.53;;
59907;SDS011;61804;54.926;73.496;2023-11-19T07:08:46;4.57;;;3.67;;
59907;SDS011;61804;54.926;73.496;2023-11-19T07:11:14;5.50;;;3.75;;
59907;SDS011;61804;54.926;73.496;2023-11-19T07:13:43;6.72;;;3.22;;
59907;SDS011;61804;54.926;73.496;2023-11-19T07:16:14;2.13;;;1.92;;
59907;SDS011;61804;54.926;73.496;2023-11-19T07:18:41;4.85;;;3.33;;
59907;SDS011;61804;54.926;73.496;2023-11-19T07:21:11;3.42;;;2.47;;
59907;SDS011;61804;54.926;73.496;2023-11-19T07:23:38;3.53;;;2.33;;
59907;SDS011;61804;54.926;73.496;2023-11-19T07:26:06;5.00;;;3.22;;
59907;SDS011;61804;54.926;73.496;2023-11-19T07:28:35;1.65;;;1.55;;
59907;SDS011;61804;54.926;73.496;2023-11-19T07:31:03;2.03;;;1.92;;
59907;SDS011;61804;54.926;73.496;2023-11-19T07:33:30;4.28;;;2.85;;
59907;SDS011;61804;54.926;73.496;2023-11-19T07:35:58;6.55;;;4.53;;
59907;SDS011;61804;54.926;73.496;2023-11-19T07:38:26;22.67;;;15.35;;
59907;SDS011;61804;54.926;73.496;2023-11-19T07:40:53;4.75;;;2.90;;
59907;SDS011;61804;54.926;73.496;2023-11-19T07:43:20;5.15;;;3.60;;
59907;SDS011;61804;54.926;73.496;2023-11-19T07:45:48;6.68;;;5.22;;
59907;SDS011;61804;54.926;73.496;2023-11-19T07:48:15;6.78;;;4.07;;
59907;SDS011;61804;54.926;73.496;2023-11-19T07:50:42;5.97;;;3.80;;
59907;SDS011;61804;54.926;73.496;2023-11-19T07:53:10;5.40;;;3.70;;
59907;SDS011;61804;54.926;73.496;2023-11-19T07:55:40;6.55;;;4.07;;
59907;SDS011;61804;54.926;73.496;2023-11-19T07:58:07;3.90;;;2.88;;
59907;SDS011;61804;54.926;73.496;2023-11-19T08:00:34;4.72;;;2.97;;
59907;SDS011;61804;54.926;73.496;2023-11-19T08:03:03;2.63;;;2.42;;
59907;SDS011;61804;54.926;73.496;2023-11-19T08:05:31;5.93;;;2.70;;
59907;SDS011;61804;54.926;73.496;2023-11-19T08:07:58;5.15;;;3.75;;
59907;SDS011;61804;54.926;73.496;2023-11-19T08:10:26;9.30;;;4.53;;
59907;SDS011;61804;54.926;73.496;2023-11-19T08:12:53;8.65;;;5.75;;
59907;SDS011;61804;54.926;73.496;2023-11-19T08:15:21;2.53;;;2.22;;
59907;SDS011;61804;54.926;73.496;2023-11-19T08:17:48;5.53;;;5.03;;
59907;SDS011;61804;54.926;73.496;2023-11-19T08:20:16;3.75;;;3.45;;
59907;SDS011;61804;54.926;73.496;2023-11-19T08:22:43;7.38;;;4.28;;
59907;SDS011;61804;54.926;73.496;2023-11-19T08:25:11;4.63;;;3.95;;
59907;SDS011;61804;54.926;73.496;2023-11-19T08:27:39;2.25;;;1.70;;
59907;SDS011;61804;54.926;73.496;2023-11-19T08:30:09;5.68;;;2.58;;
59907;SDS011;61804;54.926;73.496;2023-11-19T08:32:39;5.97;;;2.63;;
59907;SDS011;61804;54.926;73.496;2023-11-19T08:35:06;7.63;;;6.60;;
59907;SDS011;61804;54.926;73.496;2023-11-19T08:37:34;8.60;;;4.90;;
59907;SDS011;61804;54.926;73.496;2023-11-19T08:40:04;6.88;;;3.03;;
59907;SDS011;61804;54.926;73.496;2023-11-19T08:42:32;4.03;;;2.67;;
59907;SDS011;61804;54.926;73.496;2023-11-19T08:44:59;10.05;;;5.68;;
59907;SDS011;61804;54.926;73.496;2023-11-19T08:47:28;5.35;;;4.80;;
59907;SDS011;61804;54.926;73.496;2023-11-19T08:49:56;3.58;;;1.63;;
59907;SDS011;61804;54.926;73.496;2023-11-19T08:52:24;3.95;;;2.67;;
59907;SDS011;61804;54.926;73.496;2023-11-19T08:54:52;2.28;;;1.40;;
59907;SDS011;61804;54.926;73.496;2023-11-19T08:57:19;2.58;;;1.98;;
59907;SDS011;61804;54.926;73.496;2023-11-19T08:59:47;3.28;;;2.50;;
59907;SDS011;61804;54.926;73.496;2023-11-19T09:02:14;3.63;;;2.45;;
59907;SDS011;61804;54.926;73.496;2023-11-19T09:04:42;2.85;;;2.35;;
59907;SDS011;61804;54.926;73.496;2023-11-19T09:07:09;3.55;;;2.03;;
59907;SDS011;61804;54.926;73.496;2023-11-19T09:09:37;4.00;;;3.38;;
59907;SDS011;61804;54.926;73.496;2023-11-19T09:12:04;12.98;;;3.47;;
59907;SDS011;61804;54.926;73.496;2023-11-19T09:14:35;2.45;;;1.45;;
59907;SDS011;61804;54.926;73.496;2023-11-19T09:17:02;5.85;;;3.03;;
59907;SDS011;61804;54.926;73.496;2023-11-19T09:19:31;4.45;;;3.00;;
59907;SDS011;61804;54.926;73.496;2023-11-19T09:21:59;3.50;;;1.55;;
59907;SDS011;61804;54.926;73.496;2023-11-19T09:24:28;3.88;;;1.92;;
59907;SDS011;61804;54.926;73.496;2023-11-19T09:26:55;1.70;;;1.00;;
59907;SDS011;61804;54.926;73.496;2023-11-19T09:29:23;3.50;;;2.40;;
59907;SDS011;61804;54.926;73.496;2023-11-19T09:31:51;6.70;;;3.05;;
59907;SDS011;61804;54.926;73.496;2023-11-19T09:34:18;7.00;;;3.00;;
59907;SDS011;61804;54.926;73.496;2023-11-19T09:36:45;7.85;;;3.95;;
59907;SDS011;61804;54.926;73.496;2023-11-19T09:39:13;9.35;;;4.22;;
59907;SDS011;61804;54.926;73.496;2023-11-19T09:41:44;6.38;;;4.63;;
59907;SDS011;61804;54.926;73.496;2023-11-19T09:44:12;1.67;;;1.58;;
59907;SDS011;61804;54.926;73.496;2023-11-19T09:46:41;4.97;;;3.65;;
59907;SDS011;61804;54.926;73.496;2023-11-19T09:49:09;10.32;;;5.47;;
59907;SDS011;61804;54.926;73.496;2023-11-19T09:51:37;5.88;;;3.83;;
59907;SDS011;61804;54.926;73.496;2023-11-19T09:54:04;8.77;;;4.60;;
59907;SDS011;61804;54.926;73.496;2023-11-19T09:56:32;5.45;;;3.88;;
59907;SDS011;61804;54.926;73.496;2023-11-19T09:59:00;6.10;;;2.83;;
59907;SDS011;61804;54.926;73.496;2023-11-19T10:01:27;9.57;;;5.45;;
59907;SDS011;61804;54.926;73.496;2023-11-19T10:03:55;6.07;;;4.70;;
59907;SDS011;61804;54.926;73.496;2023-11-19T10:06:22;4.75;;;3.78;;
59907;SDS011;61804;54.926;73.496;2023-11-19T10:08:51;3.42;;;2.65;;
59907;SDS011;61804;54.926;73.496;2023-11-19T10:11:20;2.65;;;2.38;;
59907;SDS011;61804;54.926;73.496;2023-11-19T10:13:47;6.80;;;3.75;;
59907;SDS011;61804;54.926;73.496;2023-11-19T10:16:14;8.32;;;3.85;;
59907;SDS011;61804;54.926;73.496;2023-11-19T10:18:45;7.38;;;5.10;;
59907;SDS011;61804;54.926;73.496;2023-11-19T10:21:13;8.30;;;5.43;;
59907;SDS011;61804;54.926;73.496;2023-11-19T10:23:50;5.70;;;4.47;;
59907;SDS011;61804;54.926;73.496;2023-11-19T10:26:18;4.75;;;3.45;;
59907;SDS011;61804;54.926;73.496;2023-11-19T10:28:46;6.07;;;4.70;;
59907;SDS011;61804;54.926;73.496;2023-11-19T10:31:19;9.88;;;7.30;;
59907;SDS011;61804;54.926;73.496;2023-11-19T10:33:47;13.95;;;6.68;;
59907;SDS011;61804;54.926;73.496;2023-11-19T10:36:14;10.80;;;6.15;;
59907;SDS011;61804;54.926;73.496;2023-11-19T10:38:53;5.78;;;3.78;;
59907;SDS011;61804;54.926;73.496;2023-11-19T10:41:28;17.98;;;8.68;;
59907;SDS011;61804;54.926;73.496;2023-11-19T10:43:55;26.80;;;14.93;;
59907;SDS011;61804;54.926;73.496;2023-11-19T10:46:23;12.35;;;8.10;;
59907;SDS011;61804;54.926;73.496;2023-11-19T10:49:03;21.48;;;10.80;;
59907;SDS011;61804;54.926;73.496;2023-11-19T10:51:30;11.88;;;7.60;;
59907;SDS011;61804;54.926;73.496;2023-11-19T10:54:05;13.25;;;7.63;;
59907;SDS011;61804;54.926;73.496;2023-11-19T10:56:33;36.58;;;24.02;;
59907;SDS011;61804;54.926;73.496;2023-11-19T10:59:01;10.05;;;8.77;;
59907;SDS011;61804;54.926;73.496;2023-11-19T11:01:49;12.40;;;10.43;;
59907;SDS011;61804;54.926;73.496;2023-11-19T11:04:19;14.05;;;8.40;;
59907;SDS011;61804;54.926;73.496;2023-11-19T11:06:49;9.05;;;4.97;;
59907;SDS011;61804;54.926;73.496;2023-11-19T11:09:17;4.00;;;3.60;;
59907;SDS011;61804;54.926;73.496;2023-11-19T11:11:46;13.35;;;6.63;;
59907;SDS011;61804;54.926;73.496;2023-11-19T11:14:14;14.38;;;9.20;;
59907;SDS011;61804;54.926;73.496;2023-11-19T11:16:43;22.35;;;13.30;;
59907;SDS011;61804;54.926;73.496;2023-11-19T11:19:11;12.20;;;5.95;;
59907;SDS011;61804;54.926;73.496;2023-11-19T11:21:40;13.18;;;8.07;;
59907;SDS011;61804;54.926;73.496;2023-11-19T11:32:16;15.68;;;8.88;;
59907;SDS011;61804;54.926;73.496;2023-11-19T11:37:47;16.25;;;7.68;;
59907;SDS011;61804;54.926;73.496;2023-11-19T11:40:26;16.08;;;9.57;;
59907;SDS011;61804;54.926;73.496;2023-11-19T11:42:55;23.35;;;11.10;;
59907;SDS011;61804;54.926;73.496;2023-11-19T11:45:35;13.32;;;9.18;;
59907;SDS011;61804;54.926;73.496;2023-11-19T11:50:50;23.13;;;11.70;;
59907;SDS011;61804;54.926;73.496;2023-11-19T11:53:18;20.92;;;12.45;;
59907;SDS011;61804;54.926;73.496;2023-11-19T11:58:27;21.58;;;16.85;;
59907;SDS011;61804;54.926;73.496;2023-11-19T12:00:57;4.72;;;3.80;;
59907;SDS011;61804;54.926;73.496;2023-11-19T12:03:26;20.85;;;5.82;;
59907;SDS011;61804;54.926;73.496;2023-11-19T12:05:53;7.03;;;6.32;;
59907;SDS011;61804;54.926;73.496;2023-11-19T12:08:24;9.85;;;6.85;;
59907;SDS011;61804;54.926;73.496;2023-11-19T12:10:53;14.90;;;8.27;;
59907;SDS011;61804;54.926;73.496;2023-11-19T12:13:21;12.40;;;10.32;;
59907;SDS011;61804;54.926;73.496;2023-11-19T12:18:38;5.65;;;4.43;;
59907;SDS011;61804;54.926;73.496;2023-11-19T12:21:07;10.38;;;6.93;;
59907;SDS011;61804;54.926;73.496;2023-11-19T12:23:43;7.55;;;6.15;;
59907;SDS011;61804;54.926;73.496;2023-11-19T12:26:20;6.55;;;5.95;;
59907;SDS011;61804;54.926;73.496;2023-11-19T12:28:58;5.30;;;2.97;;
59907;SDS011;61804;54.926;73.496;2023-11-19T12:31:31;5.78;;;3.05;;
59907;SDS011;61804;54.926;73.496;2023-11-19T12:33:59;6.00;;;4.30;;
59907;SDS011;61804;54.926;73.496;2023-11-19T12:36:26;9.20;;;4.43;;
59907;SDS011;61804;54.926;73.496;2023-11-19T12:39:03;7.65;;;6.40;;
59907;SDS011;61804;54.926;73.496;2023-11-19T12:41:31;11.00;;;6.68;;
59907;SDS011;61804;54.926;73.496;2023-11-19T12:44:10;5.50;;;3.88;;
59907;SDS011;61804;54.926;73.496;2023-11-19T12:47:06;15.93;;;7.28;;
59907;SDS011;61804;54.926;73.496;2023-11-19T12:49:34;7.40;;;3.58;;
59907;SDS011;61804;54.926;73.496;2023-11-19T12:52:10;10.55;;;5.47;;
59907;SDS011;61804;54.926;73.496;2023-11-19T12:54:38;7.15;;;3.85;;
59907;SDS011;61804;54.926;73.496;2023-11-19T12:57:41;3.13;;;2.50;;
59907;SDS011;61804;54.926;73.496;2023-11-19T13:00:19;4.38;;;3.90;;
59907;SDS011;61804;54.926;73.496;2023-11-19T13:02:55;10.82;;;5.82;;
59907;SDS011;61804;54.926;73.496;2023-11-19T13:07:50;7.55;;;4.30;;
59907;SDS011;61804;54.926;73.496;2023-11-19T13:10:17;6.70;;;4.25;;
59907;SDS011;61804;54.926;73.496;2023-11-19T13:12:45;9.73;;;6.78;;
59907;SDS011;61804;54.926;73.496;2023-11-19T13:15:26;7.65;;;5.07;;
59907;SDS011;61804;54.926;73.496;2023-11-19T13:17:57;8.07;;;5.40;;
59907;SDS011;61804;54.926;73.496;2023-11-19T13:20:24;6.88;;;3.83;;
59907;SDS011;61804;54.926;73.496;2023-11-19T13:25:22;12.10;;;7.20;;
59907;SDS011;61804;54.926;73.496;2023-11-19T13:28:02;13.10;;;7.95;;
59907;SDS011;61804;54.926;73.496;2023-11-19T13:30:30;8.32;;;6.20;;
59907;SDS011;61804;54.926;73.496;2023-11-19T13:32:58;6.05;;;3.85;;
59907;SDS011;61804;54.926;73.496;2023-11-19T13:35:25;7.03;;;4.07;;
59907;SDS011;61804;54.926;73.496;2023-11-19T13:37:55;6.18;;;4.22;;
59907;SDS011;61804;54.926;73.496;2023-11-19T13:40:24;6.65;;;4.28;;
59907;SDS011;61804;54.926;73.496;2023-11-19T13:42:51;14.68;;;8.27;;
59907;SDS011;61804;54.926;73.496;2023-11-19T13:45:26;12.33;;;6.20;;
59907;SDS011;61804;54.926;73.496;2023-11-19T13:48:03;8.43;;;5.05;;
59907;SDS011;61804;54.926;73.496;2023-11-19T13:50:30;9.05;;;4.70;;
59907;SDS011;61804;54.926;73.496;2023-11-19T13:52:58;11.13;;;4.75;;
59907;SDS011;61804;54.926;73.496;2023-11-19T13:55:26;7.30;;;4.35;;
59907;SDS011;61804;54.926;73.496;2023-11-19T13:57:54;6.18;;;4.30;;
59907;SDS011;61804;54.926;73.496;2023-11-19T14:00:21;9.10;;;4.55;;
59907;SDS011;61804;54.926;73.496;2023-11-19T14:02:50;10.93;;;5.28;;
59907;SDS011;61804;54.926;73.496;2023-11-19T14:05:18;7.90;;;5.93;;
59907;SDS011;61804;54.926;73.496;2023-11-19T14:07:46;8.85;;;5.95;;
59907;SDS011;61804;54.926;73.496;2023-11-19T14:10:18;4.97;;;2.90;;
59907;SDS011;61804;54.926;73.496;2023-11-19T14:12:45;13.98;;;7.88;;
59907;SDS011;61804;54.926;73.496;2023-11-19T14:15:13;10.82;;;5.95;;
59907;SDS011;61804;54.926;73.496;2023-11-19T14:17:41;11.23;;;8.10;;
59907;SDS011;61804;54.926;73.496;2023-11-19T14:20:08;7.05;;;4.97;;
59907;SDS011;61804;54.926;73.496;2023-11-19T14:22:43;6.07;;;4.13;;
59907;SDS011;61804;54.926;73.496;2023-11-19T14:25:11;9.25;;;6.15;;
59907;SDS011;61804;54.926;73.496;2023-11-19T14:27:40;10.38;;;7.60;;
59907;SDS011;61804;54.926;73.496;2023-11-19T14:30:08;7.90;;;4.80;;
59907;SDS011;61804;54.926;73.496;2023-11-19T14:32:38;13.63;;;7.07;;
59907;SDS011;61804;54.926;73.496;2023-11-19T14:35:07;9.55;;;7.07;;
59907;SDS011;61804;54.926;73.496;2023-11-19T14:37:34;7.32;;;4.75;;
59907;SDS011;61804;54.926;73.496;2023-11-19T14:40:02;10.45;;;4.18;;
59907;SDS011;61804;54.926;73.496;2023-11-19T14:42:33;6.80;;;4.00;;
59907;SDS011;61804;54.926;73.496;2023-11-19T14:45:01;5.07;;;4.45;;
59907;SDS011;61804;54.926;73.496;2023-11-19T14:47:28;6.80;;;6.13;;
59907;SDS011;61804;54.926;73.496;2023-11-19T14:50:00;7.47;;;4.93;;
59907;SDS011;61804;54.926;73.496;2023-11-19T14:52:28;9.60;;;4.53;;
59907;SDS011;61804;54.926;73.496;2023-11-19T14:54:56;12.98;;;7.30;;
59907;SDS011;61804;54.926;73.496;2023-11-19T14:57:23;6.78;;;5.35;;
59907;SDS011;61804;54.926;73.496;2023-11-19T14:59:50;7.22;;;4.85;;
59907;SDS011;61804;54.926;73.496;2023-11-19T15:02:18;6.10;;;4.90;;
59907;SDS011;61804;54.926;73.496;2023-11-19T15:04:45;7.28;;;5.38;;